Huvudsida
METAR-TAF:

METAR-TAF

Flygplatser :

Sandakan, Malaysia

latitud: 05-54N, longitud: 118-04E, höjd: 12 m

Aktuellt väderrapport

Denna rapport gjordes för 22 minuter sedan, klockan 16:00 UTC
Vind 3 kt från sydväst, varierande mellan syd och väst
Temperatur 27°C
Fuktighet 84%
Tryck 1009 hPa
Sikt 10 km eller mer
Få moln på en höjd av 1600 ft
Brutna moln på en höjd av 29000 ft

METAR: WBKS 241600Z 22003KT 180V260 9999 FEW016 BKN290 27/24 Q1009

Tid: 00:22 (16:22 UTC)

Väderprognos

Denna rapport gjordes för 5 timmar och 22 minuter sedan, klockan 11:00 UTC
Prognos gäller från 24 kl. 12 UTC till 25 kl. 12 UTC
Vind 5 kt från väst/sydväst
Sikt 10 km eller mer
Få moln på en höjd av 1500 ft

TAF: WBKS 241100Z 2412/2512 25005KT 9999 FEW015

Aktuella väderrapporter och prognoser från 4000 flygplatser (METAR- och TAF-rapporter).

De tillgängliga stationerna syns som gula och röda prickar på kartan.

För musen över prickarna för att se namnen på stationerna.

Klicka sedan för att få väderrapporter och prognoser.

För att ändra kartan: Klicka på de gröna knapparna med ett svart kors på för att zooma in; den gröna knappen med ett streck på för att zooma ut; eller på de gröna pilarna för angränsande kartor.


METAR-TAF: